sensor_id;sensor_type;location;lat;lon;timestamp;P1;durP1;ratioP1;P2;durP2;ratioP2
71973;SDS011;59840;52.122;5.404;2022-11-06T00:01:08;3.83;;;1.90;;
71973;SDS011;59840;52.122;5.404;2022-11-06T00:03:36;3.08;;;1.90;;
71973;SDS011;59840;52.122;5.404;2022-11-06T00:06:12;2.60;;;2.03;;
71973;SDS011;59840;52.122;5.404;2022-11-06T00:08:59;5.75;;;2.33;;
71973;SDS011;59840;52.122;5.404;2022-11-06T00:11:28;7.03;;;2.40;;
71973;SDS011;59840;52.122;5.404;2022-11-06T00:13:55;6.72;;;1.98;;
71973;SDS011;59840;52.122;5.404;2022-11-06T00:16:22;7.63;;;2.55;;
71973;SDS011;59840;52.122;5.404;2022-11-06T00:18:49;4.60;;;2.20;;
71973;SDS011;59840;52.122;5.404;2022-11-06T00:21:23;8.20;;;2.63;;
71973;SDS011;59840;52.122;5.404;2022-11-06T00:23:53;7.73;;;2.50;;
71973;SDS011;59840;52.122;5.404;2022-11-06T00:26:21;6.32;;;2.40;;
71973;SDS011;59840;52.122;5.404;2022-11-06T00:28:50;9.52;;;2.25;;
71973;SDS011;59840;52.122;5.404;2022-11-06T00:31:18;8.60;;;2.05;;
71973;SDS011;59840;52.122;5.404;2022-11-06T00:33:52;3.53;;;1.98;;
71973;SDS011;59840;52.122;5.404;2022-11-06T00:36:21;6.17;;;2.20;;
71973;SDS011;59840;52.122;5.404;2022-11-06T00:38:52;3.85;;;2.10;;
71973;SDS011;59840;52.122;5.404;2022-11-06T00:41:20;4.75;;;2.65;;
71973;SDS011;59840;52.122;5.404;2022-11-06T00:43:51;10.02;;;2.70;;
71973;SDS011;59840;52.122;5.404;2022-11-06T00:46:19;7.00;;;2.33;;
71973;SDS011;59840;52.122;5.404;2022-11-06T00:48:46;3.87;;;2.47;;
71973;SDS011;59840;52.122;5.404;2022-11-06T00:51:16;5.15;;;2.42;;
71973;SDS011;59840;52.122;5.404;2022-11-06T00:53:44;4.93;;;2.35;;
71973;SDS011;59840;52.122;5.404;2022-11-06T00:56:15;5.75;;;2.17;;
71973;SDS011;59840;52.122;5.404;2022-11-06T00:58:44;3.60;;;2.22;;
71973;SDS011;59840;52.122;5.404;2022-11-06T01:01:13;3.37;;;2.20;;
71973;SDS011;59840;52.122;5.404;2022-11-06T01:03:51;4.72;;;2.45;;
71973;SDS011;59840;52.122;5.404;2022-11-06T01:06:20;6.47;;;2.30;;
71973;SDS011;59840;52.122;5.404;2022-11-06T01:08:48;4.63;;;2.00;;
71973;SDS011;59840;52.122;5.404;2022-11-06T01:13:43;4.30;;;2.33;;
71973;SDS011;59840;52.122;5.404;2022-11-06T01:16:12;4.85;;;2.17;;
71973;SDS011;59840;52.122;5.404;2022-11-06T01:18:40;5.30;;;2.63;;
71973;SDS011;59840;52.122;5.404;2022-11-06T01:21:09;5.18;;;2.38;;
71973;SDS011;59840;52.122;5.404;2022-11-06T01:23:41;4.72;;;2.53;;
71973;SDS011;59840;52.122;5.404;2022-11-06T01:26:09;5.77;;;2.40;;
71973;SDS011;59840;52.122;5.404;2022-11-06T01:28:38;5.45;;;2.08;;
71973;SDS011;59840;52.122;5.404;2022-11-06T01:31:07;3.50;;;2.10;;
71973;SDS011;59840;52.122;5.404;2022-11-06T01:33:36;3.58;;;1.88;;
71973;SDS011;59840;52.122;5.404;2022-11-06T01:36:02;5.32;;;2.35;;
71973;SDS011;59840;52.122;5.404;2022-11-06T01:38:29;4.00;;;2.47;;
71973;SDS011;59840;52.122;5.404;2022-11-06T01:40:56;6.05;;;1.98;;
71973;SDS011;59840;52.122;5.404;2022-11-06T01:43:45;4.18;;;2.20;;
71973;SDS011;59840;52.122;5.404;2022-11-06T01:46:41;3.42;;;1.60;;
71973;SDS011;59840;52.122;5.404;2022-11-06T01:49:13;3.92;;;2.20;;
71973;SDS011;59840;52.122;5.404;2022-11-06T01:51:52;3.37;;;1.77;;
71973;SDS011;59840;52.122;5.404;2022-11-06T01:54:28;4.68;;;2.00;;
71973;SDS011;59840;52.122;5.404;2022-11-06T01:56:56;2.90;;;2.10;;
71973;SDS011;59840;52.122;5.404;2022-11-06T01:59:25;5.20;;;2.13;;
71973;SDS011;59840;52.122;5.404;2022-11-06T02:01:54;5.50;;;2.08;;
71973;SDS011;59840;52.122;5.404;2022-11-06T02:04:54;4.47;;;2.57;;
71973;SDS011;59840;52.122;5.404;2022-11-06T02:07:14;4.85;;;1.95;;
71973;SDS011;59840;52.122;5.404;2022-11-06T02:09:42;4.95;;;2.15;;
71973;SDS011;59840;52.122;5.404;2022-11-06T02:12:32;3.40;;;1.70;;
71973;SDS011;59840;52.122;5.404;2022-11-06T02:23:54;2.47;;;1.27;;
71973;SDS011;59840;52.122;5.404;2022-11-06T02:29:19;3.10;;;1.42;;
71973;SDS011;59840;52.122;5.404;2022-11-06T02:31:48;4.17;;;1.47;;
71973;SDS011;59840;52.122;5.404;2022-11-06T02:34:19;4.00;;;1.52;;
71973;SDS011;59840;52.122;5.404;2022-11-06T02:37:00;5.00;;;2.08;;
71973;SDS011;59840;52.122;5.404;2022-11-06T02:39:32;3.33;;;1.50;;
71973;SDS011;59840;52.122;5.404;2022-11-06T02:42:01;4.40;;;1.20;;
71973;SDS011;59840;52.122;5.404;2022-11-06T02:44:29;5.27;;;1.57;;
71973;SDS011;59840;52.122;5.404;2022-11-06T02:47:06;2.33;;;1.40;;
71973;SDS011;59840;52.122;5.404;2022-11-06T02:52:22;3.50;;;1.48;;
71973;SDS011;59840;52.122;5.404;2022-11-06T02:54:55;4.40;;;1.60;;
71973;SDS011;59840;52.122;5.404;2022-11-06T02:57:29;6.67;;;1.60;;
71973;SDS011;59840;52.122;5.404;2022-11-06T03:00:03;5.68;;;1.48;;
71973;SDS011;59840;52.122;5.404;2022-11-06T03:02:36;4.03;;;1.35;;
71973;SDS011;59840;52.122;5.404;2022-11-06T03:05:28;5.50;;;1.55;;
71973;SDS011;59840;52.122;5.404;2022-11-06T03:08:14;4.47;;;1.13;;
71973;SDS011;59840;52.122;5.404;2022-11-06T03:19:49;2.75;;;1.33;;
71973;SDS011;59840;52.122;5.404;2022-11-06T03:22:29;4.07;;;1.15;;
71973;SDS011;59840;52.122;5.404;2022-11-06T03:25:04;3.17;;;1.07;;
71973;SDS011;59840;52.122;5.404;2022-11-06T03:30:30;4.07;;;1.42;;
71973;SDS011;59840;52.122;5.404;2022-11-06T03:33:01;3.97;;;1.23;;
71973;SDS011;59840;52.122;5.404;2022-11-06T03:38:12;3.10;;;1.13;;
71973;SDS011;59840;52.122;5.404;2022-11-06T03:40:51;2.70;;;1.10;;
71973;SDS011;59840;52.122;5.404;2022-11-06T03:43:25;5.53;;;1.80;;
71973;SDS011;59840;52.122;5.404;2022-11-06T03:45:55;4.30;;;1.77;;
71973;SDS011;59840;52.122;5.404;2022-11-06T03:51:12;6.60;;;1.63;;
71973;SDS011;59840;52.122;5.404;2022-11-06T03:53:43;6.35;;;1.20;;
71973;SDS011;59840;52.122;5.404;2022-11-06T03:56:17;3.83;;;1.40;;
71973;SDS011;59840;52.122;5.404;2022-11-06T03:58:50;2.45;;;1.20;;
71973;SDS011;59840;52.122;5.404;2022-11-06T04:01:18;2.83;;;1.23;;
71973;SDS011;59840;52.122;5.404;2022-11-06T04:03:52;4.97;;;1.10;;
71973;SDS011;59840;52.122;5.404;2022-11-06T04:06:22;4.80;;;1.30;;
71973;SDS011;59840;52.122;5.404;2022-11-06T04:08:55;2.65;;;1.10;;
71973;SDS011;59840;52.122;5.404;2022-11-06T04:11:43;6.53;;;1.13;;
71973;SDS011;59840;52.122;5.404;2022-11-06T04:14:30;4.07;;;1.10;;
71973;SDS011;59840;52.122;5.404;2022-11-06T04:16:59;6.97;;;1.20;;
71973;SDS011;59840;52.122;5.404;2022-11-06T04:19:29;3.28;;;1.00;;
71973;SDS011;59840;52.122;5.404;2022-11-06T04:28:02;3.17;;;1.15;;
71973;SDS011;59840;52.122;5.404;2022-11-06T04:30:42;1.90;;;1.03;;
71973;SDS011;59840;52.122;5.404;2022-11-06T04:39:05;3.15;;;0.90;;
71973;SDS011;59840;52.122;5.404;2022-11-06T04:41:57;4.18;;;1.00;;
71973;SDS011;59840;52.122;5.404;2022-11-06T04:44:40;4.10;;;1.20;;
71973;SDS011;59840;52.122;5.404;2022-11-06T04:47:13;3.63;;;1.10;;
71973;SDS011;59840;52.122;5.404;2022-11-06T04:49:43;3.60;;;0.80;;
71973;SDS011;59840;52.122;5.404;2022-11-06T04:52:12;4.55;;;0.95;;
71973;SDS011;59840;52.122;5.404;2022-11-06T04:54:45;5.43;;;0.90;;
71973;SDS011;59840;52.122;5.404;2022-11-06T04:57:12;4.07;;;0.90;;
71973;SDS011;59840;52.122;5.404;2022-11-06T04:59:39;3.88;;;1.40;;
71973;SDS011;59840;52.122;5.404;2022-11-06T05:02:05;4.45;;;0.80;;
71973;SDS011;59840;52.122;5.404;2022-11-06T05:04:32;1.35;;;0.70;;
71973;SDS011;59840;52.122;5.404;2022-11-06T05:06:59;6.45;;;1.13;;
71973;SDS011;59840;52.122;5.404;2022-11-06T05:09:25;4.73;;;1.10;;
71973;SDS011;59840;52.122;5.404;2022-11-06T05:11:52;3.75;;;0.82;;
71973;SDS011;59840;52.122;5.404;2022-11-06T05:14:18;5.28;;;0.80;;
71973;SDS011;59840;52.122;5.404;2022-11-06T05:16:45;6.00;;;1.05;;
71973;SDS011;59840;52.122;5.404;2022-11-06T05:19:11;3.65;;;1.08;;
71973;SDS011;59840;52.122;5.404;2022-11-06T05:21:38;1.57;;;0.70;;
71973;SDS011;59840;52.122;5.404;2022-11-06T05:24:33;3.78;;;0.80;;
71973;SDS011;59840;52.122;5.404;2022-11-06T05:27:00;3.40;;;1.00;;
71973;SDS011;59840;52.122;5.404;2022-11-06T05:29:26;6.53;;;0.98;;
71973;SDS011;59840;52.122;5.404;2022-11-06T05:31:53;5.25;;;1.20;;
71973;SDS011;59840;52.122;5.404;2022-11-06T05:34:19;5.07;;;1.43;;
71973;SDS011;59840;52.122;5.404;2022-11-06T05:36:46;4.38;;;1.02;;
71973;SDS011;59840;52.122;5.404;2022-11-06T05:39:13;4.45;;;1.00;;
71973;SDS011;59840;52.122;5.404;2022-11-06T05:41:39;4.78;;;0.70;;
71973;SDS011;59840;52.122;5.404;2022-11-06T05:44:06;3.90;;;0.80;;
71973;SDS011;59840;52.122;5.404;2022-11-06T05:46:32;6.33;;;0.90;;
71973;SDS011;59840;52.122;5.404;2022-11-06T05:49:16;3.80;;;0.90;;
71973;SDS011;59840;52.122;5.404;2022-11-06T05:51:43;3.22;;;0.80;;
71973;SDS011;59840;52.122;5.404;2022-11-06T05:54:09;3.08;;;0.80;;
71973;SDS011;59840;52.122;5.404;2022-11-06T05:56:36;2.35;;;1.00;;
71973;SDS011;59840;52.122;5.404;2022-11-06T05:59:03;3.57;;;1.00;;
71973;SDS011;59840;52.122;5.404;2022-11-06T06:01:29;7.85;;;0.90;;
71973;SDS011;59840;52.122;5.404;2022-11-06T06:03:56;3.30;;;0.80;;
71973;SDS011;59840;52.122;5.404;2022-11-06T06:06:23;3.72;;;0.98;;
71973;SDS011;59840;52.122;5.404;2022-11-06T06:08:49;4.75;;;0.88;;
71973;SDS011;59840;52.122;5.404;2022-11-06T06:11:16;3.03;;;0.63;;
71973;SDS011;59840;52.122;5.404;2022-11-06T06:13:42;3.47;;;0.68;;
71973;SDS011;59840;52.122;5.404;2022-11-06T06:16:09;2.70;;;0.70;;
71973;SDS011;59840;52.122;5.404;2022-11-06T06:18:36;2.20;;;0.80;;
71973;SDS011;59840;52.122;5.404;2022-11-06T06:21:02;1.95;;;0.80;;
71973;SDS011;59840;52.122;5.404;2022-11-06T06:23:29;3.80;;;1.10;;
71973;SDS011;59840;52.122;5.404;2022-11-06T06:25:55;1.65;;;1.02;;
71973;SDS011;59840;52.122;5.404;2022-11-06T06:28:22;3.22;;;0.93;;
71973;SDS011;59840;52.122;5.404;2022-11-06T06:30:49;4.28;;;0.90;;
71973;SDS011;59840;52.122;5.404;2022-11-06T06:33:15;4.07;;;0.88;;
71973;SDS011;59840;52.122;5.404;2022-11-06T06:35:41;6.00;;;0.93;;
71973;SDS011;59840;52.122;5.404;2022-11-06T06:38:08;4.95;;;1.20;;
71973;SDS011;59840;52.122;5.404;2022-11-06T06:40:34;3.53;;;0.98;;
71973;SDS011;59840;52.122;5.404;2022-11-06T06:43:01;3.60;;;0.85;;
71973;SDS011;59840;52.122;5.404;2022-11-06T06:45:27;3.83;;;1.10;;
71973;SDS011;59840;52.122;5.404;2022-11-06T06:48:00;1.50;;;0.73;;
71973;SDS011;59840;52.122;5.404;2022-11-06T06:50:27;4.47;;;1.25;;
71973;SDS011;59840;52.122;5.404;2022-11-06T06:52:54;2.63;;;1.20;;
71973;SDS011;59840;52.122;5.404;2022-11-06T06:55:22;2.83;;;1.08;;
71973;SDS011;59840;52.122;5.404;2022-11-06T06:57:53;3.20;;;1.30;;
71973;SDS011;59840;52.122;5.404;2022-11-06T07:00:21;5.87;;;1.20;;
71973;SDS011;59840;52.122;5.404;2022-11-06T07:02:47;5.95;;;1.40;;
71973;SDS011;59840;52.122;5.404;2022-11-06T07:05:14;4.00;;;1.13;;
71973;SDS011;59840;52.122;5.404;2022-11-06T07:07:40;7.15;;;1.25;;
71973;SDS011;59840;52.122;5.404;2022-11-06T07:10:07;1.80;;;1.13;;
71973;SDS011;59840;52.122;5.404;2022-11-06T07:12:33;1.80;;;1.10;;
71973;SDS011;59840;52.122;5.404;2022-11-06T07:15:00;2.75;;;1.05;;
71973;SDS011;59840;52.122;5.404;2022-11-06T07:17:26;2.25;;;1.17;;
71973;SDS011;59840;52.122;5.404;2022-11-06T07:19:53;5.43;;;1.48;;
71973;SDS011;59840;52.122;5.404;2022-11-06T07:22:19;3.45;;;0.95;;
71973;SDS011;59840;52.122;5.404;2022-11-06T07:24:57;3.30;;;1.37;;
71973;SDS011;59840;52.122;5.404;2022-11-06T07:27:24;4.18;;;1.40;;
71973;SDS011;59840;52.122;5.404;2022-11-06T07:29:50;2.80;;;0.95;;
71973;SDS011;59840;52.122;5.404;2022-11-06T07:32:17;2.70;;;1.40;;
71973;SDS011;59840;52.122;5.404;2022-11-06T07:34:43;6.00;;;1.33;;
71973;SDS011;59840;52.122;5.404;2022-11-06T07:37:10;4.00;;;0.93;;
71973;SDS011;59840;52.122;5.404;2022-11-06T07:39:36;4.38;;;1.23;;
71973;SDS011;59840;52.122;5.404;2022-11-06T07:42:03;3.90;;;1.02;;
71973;SDS011;59840;52.122;5.404;2022-11-06T07:44:29;3.30;;;0.75;;
71973;SDS011;59840;52.122;5.404;2022-11-06T07:46:56;2.00;;;1.08;;
71973;SDS011;59840;52.122;5.404;2022-11-06T07:49:22;2.83;;;1.10;;
71973;SDS011;59840;52.122;5.404;2022-11-06T07:51:49;4.05;;;1.20;;
71973;SDS011;59840;52.122;5.404;2022-11-06T07:54:15;3.97;;;1.02;;
71973;SDS011;59840;52.122;5.404;2022-11-06T07:56:42;1.65;;;1.08;;
71973;SDS011;59840;52.122;5.404;2022-11-06T07:59:08;2.50;;;0.75;;
71973;SDS011;59840;52.122;5.404;2022-11-06T08:01:35;4.17;;;1.00;;
71973;SDS011;59840;52.122;5.404;2022-11-06T08:04:01;1.42;;;0.80;;
71973;SDS011;59840;52.122;5.404;2022-11-06T08:06:28;5.68;;;0.95;;
71973;SDS011;59840;52.122;5.404;2022-11-06T08:08:54;4.70;;;0.80;;
71973;SDS011;59840;52.122;5.404;2022-11-06T08:11:24;3.35;;;1.38;;
71973;SDS011;59840;52.122;5.404;2022-11-06T08:13:50;2.50;;;1.00;;
71973;SDS011;59840;52.122;5.404;2022-11-06T08:16:17;2.75;;;1.00;;
71973;SDS011;59840;52.122;5.404;2022-11-06T08:18:43;1.90;;;0.65;;
71973;SDS011;59840;52.122;5.404;2022-11-06T08:21:10;2.83;;;1.20;;
71973;SDS011;59840;52.122;5.404;2022-11-06T08:23:36;2.25;;;1.00;;
71973;SDS011;59840;52.122;5.404;2022-11-06T08:26:04;3.70;;;0.90;;
71973;SDS011;59840;52.122;5.404;2022-11-06T08:28:31;2.35;;;0.90;;
71973;SDS011;59840;52.122;5.404;2022-11-06T08:31:01;4.93;;;1.30;;
71973;SDS011;59840;52.122;5.404;2022-11-06T08:33:29;2.70;;;0.90;;
71973;SDS011;59840;52.122;5.404;2022-11-06T08:35:55;2.60;;;0.90;;
71973;SDS011;59840;52.122;5.404;2022-11-06T08:38:22;5.03;;;0.80;;
71973;SDS011;59840;52.122;5.404;2022-11-06T08:40:48;2.55;;;0.70;;
71973;SDS011;59840;52.122;5.404;2022-11-06T08:43:19;3.28;;;1.65;;
71973;SDS011;59840;52.122;5.404;2022-11-06T08:45:45;3.72;;;0.90;;
71973;SDS011;59840;52.122;5.404;2022-11-06T08:48:11;3.10;;;1.13;;
71973;SDS011;59840;52.122;5.404;2022-11-06T08:50:38;4.50;;;0.80;;
71973;SDS011;59840;52.122;5.404;2022-11-06T08:53:06;2.60;;;0.75;;
71973;SDS011;59840;52.122;5.404;2022-11-06T08:55:34;3.42;;;0.88;;
71973;SDS011;59840;52.122;5.404;2022-11-06T08:58:05;5.00;;;0.70;;
71973;SDS011;59840;52.122;5.404;2022-11-06T09:05:03;4.23;;;0.80;;
71973;SDS011;59840;52.122;5.404;2022-11-06T09:07:30;3.78;;;0.88;;
71973;SDS011;59840;52.122;5.404;2022-11-06T09:09:58;4.32;;;0.77;;
71973;SDS011;59840;52.122;5.404;2022-11-06T09:16:16;2.35;;;0.77;;
71973;SDS011;59840;52.122;5.404;2022-11-06T09:22:41;2.78;;;0.75;;
71973;SDS011;59840;52.122;5.404;2022-11-06T09:28:05;3.05;;;0.70;;
71973;SDS011;59840;52.122;5.404;2022-11-06T09:30:32;2.80;;;0.63;;
71973;SDS011;59840;52.122;5.404;2022-11-06T09:32:59;2.37;;;0.80;;
71973;SDS011;59840;52.122;5.404;2022-11-06T09:35:28;4.38;;;0.70;;
71973;SDS011;59840;52.122;5.404;2022-11-06T09:38:03;2.33;;;0.65;;
71973;SDS011;59840;52.122;5.404;2022-11-06T09:46:22;1.67;;;0.70;;
71973;SDS011;59840;52.122;5.404;2022-11-06T09:48:57;2.05;;;0.82;;
71973;SDS011;59840;52.122;5.404;2022-11-06T09:51:31;2.53;;;0.80;;
71973;SDS011;59840;52.122;5.404;2022-11-06T09:54:14;1.52;;;0.47;;
71973;SDS011;59840;52.122;5.404;2022-11-06T09:56:46;2.85;;;0.55;;
71973;SDS011;59840;52.122;5.404;2022-11-06T09:59:15;2.50;;;0.60;;
71973;SDS011;59840;52.122;5.404;2022-11-06T10:01:44;5.75;;;0.80;;
71973;SDS011;59840;52.122;5.404;2022-11-06T10:04:25;5.38;;;0.80;;
71973;SDS011;59840;52.122;5.404;2022-11-06T10:10:10;1.23;;;0.60;;
71973;SDS011;59840;52.122;5.404;2022-11-06T10:18:36;2.65;;;0.55;;
71973;SDS011;59840;52.122;5.404;2022-11-06T10:21:44;3.00;;;0.40;;
71973;SDS011;59840;52.122;5.404;2022-11-06T10:24:19;2.25;;;0.50;;
71973;SDS011;59840;52.122;5.404;2022-11-06T10:26:53;3.73;;;0.47;;
71973;SDS011;59840;52.122;5.404;2022-11-06T10:34:46;2.53;;;0.50;;
71973;SDS011;59840;52.122;5.404;2022-11-06T10:37:19;2.15;;;0.50;;
71973;SDS011;59840;52.122;5.404;2022-11-06T10:39:51;1.43;;;0.50;;
71973;SDS011;59840;52.122;5.404;2022-11-06T10:42:28;2.55;;;0.75;;
71973;SDS011;59840;52.122;5.404;2022-11-06T10:45:13;3.13;;;0.80;;
71973;SDS011;59840;52.122;5.404;2022-11-06T10:47:52;4.00;;;0.80;;
71973;SDS011;59840;52.122;5.404;2022-11-06T10:50:23;3.85;;;0.60;;
71973;SDS011;59840;52.122;5.404;2022-11-06T10:55:30;1.98;;;0.55;;
71973;SDS011;59840;52.122;5.404;2022-11-06T10:58:06;4.90;;;0.75;;
71973;SDS011;59840;52.122;5.404;2022-11-06T11:00:38;3.28;;;0.50;;
71973;SDS011;59840;52.122;5.404;2022-11-06T11:06:48;5.93;;;1.00;;
71973;SDS011;59840;52.122;5.404;2022-11-06T11:09:33;3.60;;;1.02;;
71973;SDS011;59840;52.122;5.404;2022-11-06T11:12:00;1.85;;;0.60;;
71973;SDS011;59840;52.122;5.404;2022-11-06T11:14:30;4.18;;;0.75;;
71973;SDS011;59840;52.122;5.404;2022-11-06T11:16:57;3.78;;;0.75;;
71973;SDS011;59840;52.122;5.404;2022-11-06T11:19:33;2.50;;;0.70;;
71973;SDS011;59840;52.122;5.404;2022-11-06T11:22:03;2.08;;;0.52;;
71973;SDS011;59840;52.122;5.404;2022-11-06T11:25:24;2.47;;;0.90;;
71973;SDS011;59840;52.122;5.404;2022-11-06T11:27:52;2.75;;;1.08;;
71973;SDS011;59840;52.122;5.404;2022-11-06T11:30:19;3.28;;;0.90;;
71973;SDS011;59840;52.122;5.404;2022-11-06T11:32:55;3.43;;;0.77;;
71973;SDS011;59840;52.122;5.404;2022-11-06T11:35:25;3.67;;;0.85;;
71973;SDS011;59840;52.122;5.404;2022-11-06T11:38:10;3.90;;;0.85;;
71973;SDS011;59840;52.122;5.404;2022-11-06T11:40:40;1.98;;;0.50;;
71973;SDS011;59840;52.122;5.404;2022-11-06T11:51:15;4.15;;;0.68;;
71973;SDS011;59840;52.122;5.404;2022-11-06T11:53:43;2.30;;;0.40;;
71973;SDS011;59840;52.122;5.404;2022-11-06T11:56:14;3.08;;;0.75;;
71973;SDS011;59840;52.122;5.404;2022-11-06T11:59:02;1.67;;;0.40;;
71973;SDS011;59840;52.122;5.404;2022-11-06T12:01:34;1.65;;;0.70;;
71973;SDS011;59840;52.122;5.404;2022-11-06T12:06:53;2.08;;;0.57;;
71973;SDS011;59840;52.122;5.404;2022-11-06T12:09:41;2.33;;;0.50;;
71973;SDS011;59840;52.122;5.404;2022-11-06T12:12:20;1.97;;;0.40;;
71973;SDS011;59840;52.122;5.404;2022-11-06T12:15:37;1.98;;;0.45;;
71973;SDS011;59840;52.122;5.404;2022-11-06T12:17:56;2.42;;;0.70;;
71973;SDS011;59840;52.122;5.404;2022-11-06T12:20:30;4.85;;;0.85;;
71973;SDS011;59840;52.122;5.404;2022-11-06T12:23:58;3.47;;;0.65;;
71973;SDS011;59840;52.122;5.404;2022-11-06T12:26:13;3.23;;;0.40;;
71973;SDS011;59840;52.122;5.404;2022-11-06T12:28:50;2.47;;;0.50;;
71973;SDS011;59840;52.122;5.404;2022-11-06T12:31:35;3.30;;;0.57;;
71973;SDS011;59840;52.122;5.404;2022-11-06T12:34:09;2.42;;;0.50;;
71973;SDS011;59840;52.122;5.404;2022-11-06T12:36:45;3.22;;;1.08;;
71973;SDS011;59840;52.122;5.404;2022-11-06T12:39:35;4.27;;;0.90;;
71973;SDS011;59840;52.122;5.404;2022-11-06T12:42:10;2.20;;;0.60;;
71973;SDS011;59840;52.122;5.404;2022-11-06T12:44:37;2.92;;;0.88;;
71973;SDS011;59840;52.122;5.404;2022-11-06T12:47:13;1.20;;;0.60;;
71973;SDS011;59840;52.122;5.404;2022-11-06T12:49:59;2.00;;;0.68;;
71973;SDS011;59840;52.122;5.404;2022-11-06T12:52:44;3.37;;;0.63;;
71973;SDS011;59840;52.122;5.404;2022-11-06T12:55:34;3.22;;;0.40;;
71973;SDS011;59840;52.122;5.404;2022-11-06T13:06:32;4.53;;;0.73;;
71973;SDS011;59840;52.122;5.404;2022-11-06T13:09:42;2.10;;;0.43;;
71973;SDS011;59840;52.122;5.404;2022-11-06T13:12:33;3.65;;;0.50;;
71973;SDS011;59840;52.122;5.404;2022-11-06T13:20:51;4.93;;;0.57;;
71973;SDS011;59840;52.122;5.404;2022-11-06T13:23:47;3.53;;;0.55;;
71973;SDS011;59840;52.122;5.404;2022-11-06T13:26:26;2.67;;;0.57;;
71973;SDS011;59840;52.122;5.404;2022-11-06T13:29:03;3.30;;;0.60;;
71973;SDS011;59840;52.122;5.404;2022-11-06T13:31:39;4.70;;;1.13;;
71973;SDS011;59840;52.122;5.404;2022-11-06T13:34:23;1.30;;;0.30;;
71973;SDS011;59840;52.122;5.404;2022-11-06T13:36:54;2.78;;;0.40;;
71973;SDS011;59840;52.122;5.404;2022-11-06T13:39:27;4.30;;;0.40;;
71973;SDS011;59840;52.122;5.404;2022-11-06T13:42:00;2.25;;;0.52;;
71973;SDS011;59840;52.122;5.404;2022-11-06T13:44:28;2.47;;;0.65;;
71973;SDS011;59840;52.122;5.404;2022-11-06T13:47:11;3.77;;;0.60;;
71973;SDS011;59840;52.122;5.404;2022-11-06T13:49:43;1.73;;;0.73;;
71973;SDS011;59840;52.122;5.404;2022-11-06T13:52:21;4.07;;;0.90;;
71973;SDS011;59840;52.122;5.404;2022-11-06T13:54:59;2.88;;;0.73;;
71973;SDS011;59840;52.122;5.404;2022-11-06T13:58:46;3.55;;;0.60;;
71973;SDS011;59840;52.122;5.404;2022-11-06T14:07:48;3.58;;;1.00;;
71973;SDS011;59840;52.122;5.404;2022-11-06T14:10:17;2.85;;;0.90;;
71973;SDS011;59840;52.122;5.404;2022-11-06T14:16:39;3.40;;;0.90;;
71973;SDS011;59840;52.122;5.404;2022-11-06T14:26:50;2.08;;;0.98;;
71973;SDS011;59840;52.122;5.404;2022-11-06T14:36:12;2.53;;;0.40;;
71973;SDS011;59840;52.122;5.404;2022-11-06T14:38:51;3.67;;;0.65;;
71973;SDS011;59840;52.122;5.404;2022-11-06T14:41:48;3.20;;;0.63;;
71973;SDS011;59840;52.122;5.404;2022-11-06T14:46:51;1.97;;;0.60;;
71973;SDS011;59840;52.122;5.404;2022-11-06T14:49:34;1.17;;;0.50;;
71973;SDS011;59840;52.122;5.404;2022-11-06T14:55:59;2.95;;;0.60;;
71973;SDS011;59840;52.122;5.404;2022-11-06T14:58:30;2.80;;;0.60;;
71973;SDS011;59840;52.122;5.404;2022-11-06T15:16:43;7.75;;;2.78;;
71973;SDS011;59840;52.122;5.404;2022-11-06T15:19:19;5.05;;;2.13;;
71973;SDS011;59840;52.122;5.404;2022-11-06T15:27:27;2.80;;;1.00;;
71973;SDS011;59840;52.122;5.404;2022-11-06T15:29:57;4.13;;;2.17;;
71973;SDS011;59840;52.122;5.404;2022-11-06T15:32:33;2.03;;;1.25;;
71973;SDS011;59840;52.122;5.404;2022-11-06T15:38:02;2.88;;;1.42;;
71973;SDS011;59840;52.122;5.404;2022-11-06T15:40:32;2.77;;;1.03;;
71973;SDS011;59840;52.122;5.404;2022-11-06T15:43:22;2.63;;;1.77;;
71973;SDS011;59840;52.122;5.404;2022-11-06T15:46:04;4.65;;;2.70;;
71973;SDS011;59840;52.122;5.404;2022-11-06T15:48:37;3.88;;;2.05;;
71973;SDS011;59840;52.122;5.404;2022-11-06T15:53:53;3.00;;;1.50;;
71973;SDS011;59840;52.122;5.404;2022-11-06T15:56:39;2.15;;;1.80;;
71973;SDS011;59840;52.122;5.404;2022-11-06T15:59:10;3.35;;;1.70;;
71973;SDS011;59840;52.122;5.404;2022-11-06T16:01:38;3.72;;;1.90;;
71973;SDS011;59840;52.122;5.404;2022-11-06T16:04:09;2.53;;;1.08;;
71973;SDS011;59840;52.122;5.404;2022-11-06T16:06:41;2.97;;;1.30;;
71973;SDS011;59840;52.122;5.404;2022-11-06T16:09:19;2.28;;;1.48;;
71973;SDS011;59840;52.122;5.404;2022-11-06T16:11:49;1.30;;;1.15;;
71973;SDS011;59840;52.122;5.404;2022-11-06T16:14:17;2.88;;;1.58;;
71973;SDS011;59840;52.122;5.404;2022-11-06T16:16:45;3.38;;;1.30;;
71973;SDS011;59840;52.122;5.404;2022-11-06T16:19:30;2.10;;;1.20;;
71973;SDS011;59840;52.122;5.404;2022-11-06T16:22:04;3.63;;;1.00;;
71973;SDS011;59840;52.122;5.404;2022-11-06T16:27:41;7.72;;;3.15;;
71973;SDS011;59840;52.122;5.404;2022-11-06T16:30:18;5.22;;;3.22;;
71973;SDS011;59840;52.122;5.404;2022-11-06T16:32:50;8.63;;;2.80;;
71973;SDS011;59840;52.122;5.404;2022-11-06T16:35:31;3.75;;;1.75;;
71973;SDS011;59840;52.122;5.404;2022-11-06T16:38:22;5.38;;;2.40;;
71973;SDS011;59840;52.122;5.404;2022-11-06T16:41:07;3.67;;;1.73;;
71973;SDS011;59840;52.122;5.404;2022-11-06T16:43:35;2.85;;;1.42;;
71973;SDS011;59840;52.122;5.404;2022-11-06T16:46:03;2.57;;;1.10;;
71973;SDS011;59840;52.122;5.404;2022-11-06T16:48:39;3.63;;;1.30;;
71973;SDS011;59840;52.122;5.404;2022-11-06T16:51:07;2.28;;;0.93;;
71973;SDS011;59840;52.122;5.404;2022-11-06T16:53:56;2.88;;;1.02;;
71973;SDS011;59840;52.122;5.404;2022-11-06T16:56:26;1.75;;;0.95;;
71973;SDS011;59840;52.122;5.404;2022-11-06T16:59:07;1.63;;;1.00;;
71973;SDS011;59840;52.122;5.404;2022-11-06T17:01:41;4.90;;;0.70;;
71973;SDS011;59840;52.122;5.404;2022-11-06T17:04:20;10.43;;;5.13;;
71973;SDS011;59840;52.122;5.404;2022-11-06T17:06:49;3.72;;;2.75;;
71973;SDS011;59840;52.122;5.404;2022-11-06T17:09:25;5.05;;;2.90;;
71973;SDS011;59840;52.122;5.404;2022-11-06T17:11:58;3.63;;;1.73;;
71973;SDS011;59840;52.122;5.404;2022-11-06T17:14:26;2.20;;;1.30;;
71973;SDS011;59840;52.122;5.404;2022-11-06T17:16:54;1.10;;;1.00;;
71973;SDS011;59840;52.122;5.404;2022-11-06T17:19:23;2.08;;;0.63;;
71973;SDS011;59840;52.122;5.404;2022-11-06T17:21:51;1.00;;;0.73;;
71973;SDS011;59840;52.122;5.404;2022-11-06T17:24:18;2.07;;;0.90;;
71973;SDS011;59840;52.122;5.404;2022-11-06T17:27:02;4.43;;;2.80;;
71973;SDS011;59840;52.122;5.404;2022-11-06T17:29:30;5.57;;;2.20;;
71973;SDS011;59840;52.122;5.404;2022-11-06T17:31:58;2.08;;;1.35;;
71973;SDS011;59840;52.122;5.404;2022-11-06T17:34:25;2.70;;;1.25;;
71973;SDS011;59840;52.122;5.404;2022-11-06T17:36:51;3.00;;;1.10;;
71973;SDS011;59840;52.122;5.404;2022-11-06T17:39:18;2.20;;;0.85;;
71973;SDS011;59840;52.122;5.404;2022-11-06T17:41:44;1.80;;;0.98;;
71973;SDS011;59840;52.122;5.404;2022-11-06T17:44:11;2.30;;;1.00;;
71973;SDS011;59840;52.122;5.404;2022-11-06T17:46:39;3.03;;;1.13;;
71973;SDS011;59840;52.122;5.404;2022-11-06T17:49:08;1.40;;;0.87;;
71973;SDS011;59840;52.122;5.404;2022-11-06T17:51:42;4.03;;;1.10;;
71973;SDS011;59840;52.122;5.404;2022-11-06T17:54:15;2.90;;;1.00;;
71973;SDS011;59840;52.122;5.404;2022-11-06T17:56:43;2.35;;;1.00;;
71973;SDS011;59840;52.122;5.404;2022-11-06T17:59:10;3.05;;;1.10;;
71973;SDS011;59840;52.122;5.404;2022-11-06T18:01:38;2.00;;;0.90;;
71973;SDS011;59840;52.122;5.404;2022-11-06T18:04:05;1.58;;;0.73;;
71973;SDS011;59840;52.122;5.404;2022-11-06T18:06:32;1.83;;;1.08;;
71973;SDS011;59840;52.122;5.404;2022-11-06T18:08:59;3.90;;;1.73;;
71973;SDS011;59840;52.122;5.404;2022-11-06T18:11:27;2.72;;;1.20;;
71973;SDS011;59840;52.122;5.404;2022-11-06T18:13:56;2.37;;;0.90;;